Time;durP1;ratioP1;P1;durP2;ratioP2;P2;SDS_P1;SDS_P2;PMS_P1;PMS_P2;Temp;Humidity;BMP_temperature;BMP_pressure;BME280_temperature;BME280_humidity;BME280_pressure;Samples;Min_cycle;Max_cycle;Signal;HPM_P1;HPM_P2
2022/01/09 00:01:16;;;;;;;31.42;21.63;;;;;;;;;;5080246;28;20590;-90
2022/01/09 00:03:42;;;;;;;30.15;19.90;;;;;;;;;;5097167;28;20487;-92
2022/01/09 00:06:09;;;;;;;32.28;21.23;;;;;;;;;;5097381;28;20126;-91
2022/01/09 00:08:37;;;;;;;28.08;19.23;;;;;;;;;;5080899;28;20040;-93
2022/01/09 00:11:03;;;;;;;32.63;20.73;;;;;;;;;;5081788;28;20098;-91
2022/01/09 00:13:30;;;;;;;30.48;20.27;;;;;;;;;;5081105;28;20046;-91
2022/01/09 00:15:56;;;;;;;29.15;19.98;;;;;;;;;;5076660;28;20042;-92
2022/01/09 00:18:22;;;;;;;30.77;20.73;;;;;;;;;;5079261;28;20475;-92
2022/01/09 00:20:48;;;;;;;28.95;19.77;;;;;;;;;;5059404;28;20047;-92
2022/01/09 00:23:14;;;;;;;32.25;22.42;;;;;;;;;;5059155;28;20039;-90
2022/01/09 00:25:40;;;;;;;31.20;21.08;;;;;;;;;;5058007;28;20093;-88
2022/01/09 00:28:14;;;;;;;30.70;20.65;;;;;;;;;;5076994;28;20032;-90
2022/01/09 00:30:40;;;;;;;29.55;19.23;;;;;;;;;;5057942;28;20078;-88
2022/01/09 00:33:07;;;;;;;24.67;18.13;;;;;;;;;;5074287;28;20032;-90
2022/01/09 00:35:34;;;;;;;29.33;20.35;;;;;;;;;;5073147;28;20036;-91
2022/01/09 00:38:00;;;;;;;28.42;20.67;;;;;;;;;;5066277;28;20434;-89
2022/01/09 00:40:26;;;;;;;31.85;21.05;;;;;;;;;;5064931;28;20044;-90
2022/01/09 00:42:53;;;;;;;35.42;22.10;;;;;;;;;;5074811;28;20047;-90
2022/01/09 00:45:19;;;;;;;31.05;20.85;;;;;;;;;;5077783;28;20039;-89
2022/01/09 00:47:46;;;;;;;32.15;22.00;;;;;;;;;;5086322;28;20448;-87
2022/01/09 00:50:13;;;;;;;27.33;19.42;;;;;;;;;;5073507;28;20085;-88
2022/01/09 00:52:39;;;;;;;37.30;23.45;;;;;;;;;;5072517;28;20039;-91
2022/01/09 00:55:06;;;;;;;35.33;22.08;;;;;;;;;;5057275;28;20032;-90
2022/01/09 00:57:33;;;;;;;32.90;21.08;;;;;;;;;;5057494;28;20085;-90
2022/01/09 00:59:59;;;;;;;38.58;24.67;;;;;;;;;;5057753;28;20036;-92
2022/01/09 01:02:25;;;;;;;41.88;24.40;;;;;;;;;;5057801;28;20036;-91
2022/01/09 01:04:52;;;;;;;32.10;22.48;;;;;;;;;;5075129;28;20071;-90
2022/01/09 01:07:23;;;;;;;30.88;20.00;;;;;;;;;;5083397;28;20057;-93
2022/01/09 01:09:49;;;;;;;32.03;22.30;;;;;;;;;;5089795;28;20372;-90
2022/01/09 01:12:16;;;;;;;36.42;22.77;;;;;;;;;;5099569;28;20119;-91
2022/01/09 01:14:42;;;;;;;38.45;25.55;;;;;;;;;;5091886;28;20486;-91
2022/01/09 01:17:09;;;;;;;37.25;24.83;;;;;;;;;;5090271;28;20078;-91
2022/01/09 01:19:36;;;;;;;37.78;24.67;;;;;;;;;;5092880;28;20067;-92
2022/01/09 01:22:09;;;;;;;41.00;26.15;;;;;;;;;;5106275;28;20046;-92
2022/01/09 01:24:37;;;;;;;43.85;27.90;;;;;;;;;;5105532;28;20043;-92
2022/01/09 01:27:03;;;;;;;47.25;29.10;;;;;;;;;;5083881;28;20052;-92
2022/01/09 01:29:31;;;;;;;54.25;30.75;;;;;;;;;;5098332;28;20089;-92
2022/01/09 01:31:58;;;;;;;45.97;29.30;;;;;;;;;;5081544;28;20040;-93
2022/01/09 01:34:24;;;;;;;43.72;29.42;;;;;;;;;;5081368;28;20074;-93
2022/01/09 01:36:51;;;;;;;44.75;28.85;;;;;;;;;;5104672;28;20038;-92
2022/01/09 01:39:20;;;;;;;49.67;30.75;;;;;;;;;;5092405;28;20450;-92
2022/01/09 01:41:48;;;;;;;54.63;32.47;;;;;;;;;;5110505;28;20059;-92
2022/01/09 01:44:17;;;;;;;54.67;32.42;;;;;;;;;;5095530;28;20040;-92
2022/01/09 01:46:44;;;;;;;51.40;30.52;;;;;;;;;;5109979;28;20040;-92
2022/01/09 01:49:11;;;;;;;51.60;30.23;;;;;;;;;;5085985;28;20039;-90
2022/01/09 01:51:39;;;;;;;60.08;33.45;;;;;;;;;;5089922;28;20040;-90
2022/01/09 01:54:09;;;;;;;54.63;33.33;;;;;;;;;;5090649;28;20042;-90
2022/01/09 01:56:35;;;;;;;46.28;29.63;;;;;;;;;;5088612;28;20042;-91
2022/01/09 01:59:02;;;;;;;76.75;39.05;;;;;;;;;;5107971;28;20506;-92
2022/01/09 02:01:29;;;;;;;55.22;31.42;;;;;;;;;;5089133;28;20371;-92
2022/01/09 02:03:58;;;;;;;85.00;41.42;;;;;;;;;;5107799;28;20135;-92
2022/01/09 02:06:25;;;;;;;78.50;40.35;;;;;;;;;;5108294;28;20031;-92
2022/01/09 02:08:51;;;;;;;72.57;39.67;;;;;;;;;;5108223;28;20051;-92
2022/01/09 02:11:18;;;;;;;63.08;36.53;;;;;;;;;;5084866;28;20051;-92
2022/01/09 02:13:46;;;;;;;76.93;40.17;;;;;;;;;;5087064;28;20044;-91
2022/01/09 02:16:17;;;;;;;79.55;40.38;;;;;;;;;;5056911;28;20055;-91
2022/01/09 02:18:47;;;;;;;72.07;38.60;;;;;;;;;;5070827;28;20068;-91
2022/01/09 02:21:14;;;;;;;91.85;43.50;;;;;;;;;;5063479;28;20048;-91
2022/01/09 02:23:41;;;;;;;67.43;37.38;;;;;;;;;;5064309;28;20100;-90
2022/01/09 02:26:08;;;;;;;60.00;34.20;;;;;;;;;;5096928;28;20048;-92
2022/01/09 02:28:34;;;;;;;60.55;34.58;;;;;;;;;;5082472;28;20062;-90
2022/01/09 02:31:01;;;;;;;74.55;39.03;;;;;;;;;;5056329;28;20075;-91
2022/01/09 02:33:27;;;;;;;79.38;41.03;;;;;;;;;;5056133;28;20028;-91
2022/01/09 02:35:54;;;;;;;75.18;38.88;;;;;;;;;;5056500;28;20039;-89
2022/01/09 02:38:21;;;;;;;81.07;39.70;;;;;;;;;;5072998;28;20408;-88
2022/01/09 02:40:51;;;;;;;78.28;40.10;;;;;;;;;;5088040;28;20089;-90
2022/01/09 02:43:18;;;;;;;86.03;43.33;;;;;;;;;;5081514;28;20039;-92
2022/01/09 02:45:47;;;;;;;86.43;40.92;;;;;;;;;;5088101;28;20040;-93
2022/01/09 02:48:16;;;;;;;84.07;37.72;;;;;;;;;;5081459;28;20494;-91
2022/01/09 02:50:54;;;;;;;80.97;39.80;;;;;;;;;;5098867;28;20040;-91
2022/01/09 02:53:21;;;;;;;84.28;38.55;;;;;;;;;;5081638;28;20035;-89
2022/01/09 02:55:48;;;;;;;95.10;41.35;;;;;;;;;;5098832;28;20035;-89
2022/01/09 02:58:14;;;;;;;98.93;41.15;;;;;;;;;;5067296;28;20036;-89
2022/01/09 03:00:43;;;;;;;83.55;36.42;;;;;;;;;;5060495;28;20040;-90
2022/01/09 03:03:09;;;;;;;92.43;39.40;;;;;;;;;;5061596;28;20548;-93
2022/01/09 03:05:36;;;;;;;119.22;44.67;;;;;;;;;;5062285;28;20403;-91
2022/01/09 03:08:02;;;;;;;110.32;42.63;;;;;;;;;;5062758;28;20495;-91
2022/01/09 03:10:28;;;;;;;97.75;40.95;;;;;;;;;;5077507;28;20109;-93
2022/01/09 03:12:56;;;;;;;87.97;35.47;;;;;;;;;;5098406;28;20132;-91
2022/01/09 03:15:22;;;;;;;85.43;35.35;;;;;;;;;;5090215;28;20075;-93
2022/01/09 03:17:48;;;;;;;84.72;34.20;;;;;;;;;;5086906;28;20116;-92
2022/01/09 03:20:16;;;;;;;62.13;26.67;;;;;;;;;;5106304;28;20047;-92
2022/01/09 03:22:42;;;;;;;62.90;27.50;;;;;;;;;;5089145;28;20053;-93
2022/01/09 03:25:09;;;;;;;107.13;37.97;;;;;;;;;;5110097;28;20106;-92
2022/01/09 03:27:37;;;;;;;35.72;17.85;;;;;;;;;;5099605;28;20122;-89
2022/01/09 03:30:04;;;;;;;100.72;34.38;;;;;;;;;;5096914;28;20031;-90
2022/01/09 03:32:31;;;;;;;57.08;22.77;;;;;;;;;;5096931;28;20057;-92
2022/01/09 03:34:57;;;;;;;80.88;29.83;;;;;;;;;;5098646;28;20402;-92
2022/01/09 03:37:23;;;;;;;70.63;28.73;;;;;;;;;;5108133;28;20031;-92
2022/01/09 03:39:49;;;;;;;46.40;19.75;;;;;;;;;;5087448;28;20061;-91
2022/01/09 03:55:29;;;;;;;36.65;11.23;;;;;;;;;;5075782;28;20380;-91
2022/01/09 03:57:55;;;;;;;40.75;11.70;;;;;;;;;;5090229;28;20044;-90
2022/01/09 04:00:23;;;;;;;33.33;9.07;;;;;;;;;;5075187;28;20043;-91
2022/01/09 04:02:49;;;;;;;39.38;9.75;;;;;;;;;;5099602;28;20040;-90
2022/01/09 04:05:15;;;;;;;40.47;8.68;;;;;;;;;;5086140;28;20040;-90
2022/01/09 04:07:42;;;;;;;48.75;10.13;;;;;;;;;;5057533;28;20513;-91
2022/01/09 04:10:08;;;;;;;45.05;10.60;;;;;;;;;;5071858;28;20033;-90
2022/01/09 04:12:37;;;;;;;55.92;11.05;;;;;;;;;;5055575;28;20131;-91
2022/01/09 04:15:05;;;;;;;54.20;12.50;;;;;;;;;;5070920;28;20052;-90
2022/01/09 04:20:16;;;;;;;61.45;11.05;;;;;;;;;;5081919;28;20036;-92
2022/01/09 04:22:42;;;;;;;54.75;11.02;;;;;;;;;;5082717;28;20039;-90
2022/01/09 04:25:09;;;;;;;44.47;9.85;;;;;;;;;;5069547;28;20041;-88
2022/01/09 04:27:36;;;;;;;53.35;10.25;;;;;;;;;;5083276;28;20036;-89
2022/01/09 04:30:02;;;;;;;48.55;9.90;;;;;;;;;;5069048;28;20124;-87
2022/01/09 04:32:28;;;;;;;47.05;9.70;;;;;;;;;;5068385;28;20083;-87
2022/01/09 04:34:54;;;;;;;55.10;10.13;;;;;;;;;;5085829;28;20067;-87
2022/01/09 04:37:21;;;;;;;45.03;9.15;;;;;;;;;;5072794;28;20032;-87
2022/01/09 04:39:49;;;;;;;62.03;10.07;;;;;;;;;;5065024;28;20040;-87
2022/01/09 04:42:15;;;;;;;45.88;9.43;;;;;;;;;;5069666;28;20142;-89
2022/01/09 04:44:42;;;;;;;54.05;11.23;;;;;;;;;;5084885;28;20495;-87
2022/01/09 04:47:13;;;;;;;42.72;9.73;;;;;;;;;;5069746;28;20040;-88
2022/01/09 04:49:42;;;;;;;50.15;8.55;;;;;;;;;;5060053;28;20086;-87
2022/01/09 04:52:12;;;;;;;51.20;9.57;;;;;;;;;;5094716;28;20403;-88
2022/01/09 04:54:39;;;;;;;42.20;8.48;;;;;;;;;;5086315;28;20043;-89
2022/01/09 04:57:05;;;;;;;44.13;8.65;;;;;;;;;;5107182;28;20067;-88
2022/01/09 04:59:31;;;;;;;59.03;10.23;;;;;;;;;;5063926;28;20028;-89
2022/01/09 05:01:58;;;;;;;47.75;9.43;;;;;;;;;;5063613;28;20050;-88
2022/01/09 05:04:24;;;;;;;51.28;7.88;;;;;;;;;;5090372;28;20123;-87
2022/01/09 05:06:50;;;;;;;46.75;8.38;;;;;;;;;;5067147;28;20048;-87
2022/01/09 05:09:16;;;;;;;34.67;6.93;;;;;;;;;;5075356;28;20040;-87
2022/01/09 05:11:42;;;;;;;33.00;7.82;;;;;;;;;;5051992;28;1163302;-88
2022/01/09 05:14:09;;;;;;;41.83;8.32;;;;;;;;;;5084226;28;20286;-88
2022/01/09 05:16:35;;;;;;;51.25;7.50;;;;;;;;;;5086781;28;20287;-88
2022/01/09 05:19:05;;;;;;;43.65;7.55;;;;;;;;;;5052768;28;20043;-88
2022/01/09 05:21:31;;;;;;;43.03;8.02;;;;;;;;;;5052715;28;20040;-88
2022/01/09 05:23:57;;;;;;;34.97;6.85;;;;;;;;;;5069948;28;20047;-87
2022/01/09 05:26:24;;;;;;;37.83;7.47;;;;;;;;;;5085897;28;20039;-88
2022/01/09 05:28:50;;;;;;;32.95;7.25;;;;;;;;;;5058352;28;20032;-87
2022/01/09 05:31:17;;;;;;;36.53;6.78;;;;;;;;;;5105973;28;20114;-87
2022/01/09 05:33:43;;;;;;;31.85;6.43;;;;;;;;;;5091396;28;20036;-87
2022/01/09 05:36:09;;;;;;;33.00;6.88;;;;;;;;;;5068180;28;20039;-88
2022/01/09 05:38:35;;;;;;;36.25;6.63;;;;;;;;;;5068035;28;20072;-88
2022/01/09 05:41:01;;;;;;;33.53;6.75;;;;;;;;;;5061026;28;20403;-86
2022/01/09 05:43:27;;;;;;;29.63;6.32;;;;;;;;;;5071967;28;20043;-86
2022/01/09 05:45:53;;;;;;;28.38;6.45;;;;;;;;;;5088707;28;20036;-88
2022/01/09 05:48:20;;;;;;;29.58;5.68;;;;;;;;;;5105735;28;20483;-86
2022/01/09 05:50:46;;;;;;;33.30;6.30;;;;;;;;;;5096635;28;20162;-87
2022/01/09 05:53:12;;;;;;;29.25;5.40;;;;;;;;;;5065667;28;20398;-90
2022/01/09 05:55:39;;;;;;;38.83;6.32;;;;;;;;;;5106730;28;20050;-88
2022/01/09 05:58:05;;;;;;;29.85;5.88;;;;;;;;;;5072620;28;20061;-87
2022/01/09 06:00:31;;;;;;;23.85;5.03;;;;;;;;;;5105538;28;20505;-90
2022/01/09 06:02:57;;;;;;;34.47;6.40;;;;;;;;;;5060192;28;20036;-88
2022/01/09 06:05:24;;;;;;;26.30;5.15;;;;;;;;;;5068529;28;20044;-87
2022/01/09 06:07:50;;;;;;;29.08;5.68;;;;;;;;;;5067722;28;20507;-85
2022/01/09 06:10:16;;;;;;;26.83;4.75;;;;;;;;;;5067949;28;20555;-88
2022/01/09 06:12:42;;;;;;;32.22;5.45;;;;;;;;;;5079582;28;20052;-87
2022/01/09 06:15:09;;;;;;;23.40;5.72;;;;;;;;;;5055773;28;20063;-86
2022/01/09 06:17:36;;;;;;;26.20;6.18;;;;;;;;;;5084193;28;20042;-90
2022/01/09 06:20:03;;;;;;;24.75;4.95;;;;;;;;;;5058470;28;20072;-87
2022/01/09 06:22:29;;;;;;;28.40;4.63;;;;;;;;;;5104666;28;20126;-86
2022/01/09 06:24:55;;;;;;;22.02;5.32;;;;;;;;;;5089830;28;20098;-87
2022/01/09 06:27:22;;;;;;;25.30;4.68;;;;;;;;;;5083825;28;20492;-86
2022/01/09 06:29:48;;;;;;;26.70;5.72;;;;;;;;;;5073924;28;20044;-87
2022/01/09 06:32:14;;;;;;;27.98;5.22;;;;;;;;;;5094349;28;20072;-87
2022/01/09 06:34:41;;;;;;;21.35;4.78;;;;;;;;;;5064882;28;20040;-87
2022/01/09 06:37:07;;;;;;;24.48;3.75;;;;;;;;;;5054497;28;20123;-87
2022/01/09 06:39:34;;;;;;;22.48;5.30;;;;;;;;;;5098720;28;20037;-86
2022/01/09 06:42:00;;;;;;;22.45;4.20;;;;;;;;;;5076973;28;20044;-85
2022/01/09 06:44:26;;;;;;;25.63;5.20;;;;;;;;;;5054194;28;20040;-87
2022/01/09 06:46:52;;;;;;;22.20;4.50;;;;;;;;;;5064006;28;20058;-86
2022/01/09 06:49:18;;;;;;;22.27;5.53;;;;;;;;;;5080546;28;20048;-86
2022/01/09 06:51:45;;;;;;;21.70;4.20;;;;;;;;;;5054489;28;20033;-86
2022/01/09 06:54:13;;;;;;;27.08;5.72;;;;;;;;;;5056163;28;20076;-87
2022/01/09 06:56:39;;;;;;;25.27;5.60;;;;;;;;;;5071260;28;20408;-86
2022/01/09 06:59:05;;;;;;;30.33;5.00;;;;;;;;;;5093530;28;20036;-86
2022/01/09 07:04:59;;;;;;;22.73;4.25;;;;;;;;;;5075840;28;20561;-84
2022/01/09 07:11:04;;;;;;;22.55;4.07;;;;;;;;;;5038217;28;19936;-87
2022/01/09 07:31:51;;;;;;;24.75;3.83;;;;;;;;;;4932141;28;20054;-87
2022/01/09 07:35:22;;;;;;;21.08;4.45;;;;;;;;;;4925388;29;20038;-87
2022/01/09 07:38:49;;;;;;;22.33;4.03;;;;;;;;;;4928108;29;20043;-86
2022/01/09 07:51:57;;;;;;;20.73;3.70;;;;;;;;;;4940855;29;20418;-88
2022/01/09 07:55:40;;;;;;;18.75;4.25;;;;;;;;;;4841213;29;20528;-88
2022/01/09 07:59:17;;;;;;;16.42;3.28;;;;;;;;;;4885829;29;20051;-89
2022/01/09 08:05:57;;;;;;;19.70;3.55;;;;;;;;;;4857936;29;20421;-88
2022/01/09 08:09:32;;;;;;;20.55;3.95;;;;;;;;;;4852500;29;20210;-89
2022/01/09 08:23:44;;;;;;;13.00;2.80;;;;;;;;;;4876293;29;20574;-88
2022/01/09 09:46:09;;;;;;;15.57;3.65;;;;;;;;;;5088573;28;20071;-88
2022/01/09 09:56:57;;;;;;;15.70;4.10;;;;;;;;;;5069881;28;20043;-88
2022/01/09 10:21:33;;;;;;;9.48;2.28;;;;;;;;;;5003083;28;20057;-87
2022/01/09 10:27:49;;;;;;;11.90;2.90;;;;;;;;;;4952118;28;20046;-87
2022/01/09 10:34:52;;;;;;;7.75;1.85;;;;;;;;;;4967277;28;20049;-88
2022/01/09 10:37:31;;;;;;;13.82;2.90;;;;;;;;;;4932345;29;20039;-89
2022/01/09 10:41:10;;;;;;;13.13;2.38;;;;;;;;;;4967401;28;20073;-88
2022/01/09 10:48:13;;;;;;;10.70;2.55;;;;;;;;;;4944502;29;20050;-86
2022/01/09 10:51:29;;;;;;;14.90;2.75;;;;;;;;;;4945912;29;20318;-89
2022/01/09 10:58:36;;;;;;;8.48;2.20;;;;;;;;;;4909319;29;20331;-90
2022/01/09 11:01:42;;;;;;;18.60;2.60;;;;;;;;;;4886782;29;20101;-89
2022/01/09 11:04:53;;;;;;;10.80;2.85;;;;;;;;;;4844372;29;20114;-87
2022/01/09 11:07:37;;;;;;;11.13;2.30;;;;;;;;;;4917158;29;20437;-90
2022/01/09 11:10:08;;;;;;;10.60;2.60;;;;;;;;;;4896260;29;20052;-89
2022/01/09 11:12:50;;;;;;;9.23;2.28;;;;;;;;;;4936798;29;20062;-89
2022/01/09 11:16:32;;;;;;;9.65;2.13;;;;;;;;;;4936748;29;20059;-89
2022/01/09 11:19:11;;;;;;;11.68;2.22;;;;;;;;;;4898594;29;20044;-87
2022/01/09 11:21:44;;;;;;;10.85;2.47;;;;;;;;;;4927180;29;20046;-89
2022/01/09 11:24:29;;;;;;;6.20;1.80;;;;;;;;;;4935281;29;20417;-87
2022/01/09 11:27:12;;;;;;;10.00;2.25;;;;;;;;;;4932321;28;20047;-88
2022/01/09 11:30:00;;;;;;;14.38;2.78;;;;;;;;;;5009398;28;20619;-89
2022/01/09 11:32:48;;;;;;;13.90;2.67;;;;;;;;;;4968576;28;20042;-87
2022/01/09 11:35:31;;;;;;;12.35;2.72;;;;;;;;;;5027145;28;20164;-87
2022/01/09 11:38:17;;;;;;;10.00;2.38;;;;;;;;;;5049918;28;20038;-88
2022/01/09 11:40:47;;;;;;;10.13;2.30;;;;;;;;;;5039019;28;20041;-89
2022/01/09 11:43:35;;;;;;;14.70;2.70;;;;;;;;;;5065068;28;20079;-90
2022/01/09 11:46:16;;;;;;;11.05;2.33;;;;;;;;;;5068738;28;20045;-88
2022/01/09 11:48:56;;;;;;;8.68;1.98;;;;;;;;;;5030390;28;20045;-87
2022/01/09 11:51:26;;;;;;;13.23;2.95;;;;;;;;;;5052259;28;20574;-88
2022/01/09 11:54:12;;;;;;;15.25;2.58;;;;;;;;;;5056132;28;20052;-87
2022/01/09 11:57:10;;;;;;;11.88;2.45;;;;;;;;;;5079785;28;20428;-89
2022/01/09 11:59:40;;;;;;;11.10;2.42;;;;;;;;;;5053721;28;20035;-91
2022/01/09 12:02:43;;;;;;;10.02;2.83;;;;;;;;;;5020862;28;20056;-90
2022/01/09 12:05:51;;;;;;;14.95;2.80;;;;;;;;;;5067744;28;20111;-89
2022/01/09 12:08:18;;;;;;;13.90;3.13;;;;;;;;;;5025260;28;20595;-89
2022/01/09 12:10:51;;;;;;;14.88;2.50;;;;;;;;;;5032076;28;20125;-89
2022/01/09 12:13:36;;;;;;;16.65;2.67;;;;;;;;;;5032661;28;20079;-88
2022/01/09 12:16:09;;;;;;;13.75;2.42;;;;;;;;;;5062806;28;20044;-90
2022/01/09 12:18:44;;;;;;;10.55;2.58;;;;;;;;;;5032345;28;20084;-90
2022/01/09 12:21:34;;;;;;;8.50;2.20;;;;;;;;;;5050224;28;20083;-92
2022/01/09 12:24:19;;;;;;;8.23;1.98;;;;;;;;;;5024635;28;20125;-89
2022/01/09 12:26:46;;;;;;;13.38;2.78;;;;;;;;;;5034061;28;20228;-90
2022/01/09 12:29:43;;;;;;;12.65;2.08;;;;;;;;;;5046637;28;20106;-89
2022/01/09 12:32:36;;;;;;;9.77;2.17;;;;;;;;;;5023401;28;20048;-89
2022/01/09 12:35:19;;;;;;;11.23;2.45;;;;;;;;;;4991553;28;20046;-90
2022/01/09 12:37:48;;;;;;;11.07;2.47;;;;;;;;;;4992837;28;20046;-89
2022/01/09 12:40:18;;;;;;;10.63;2.53;;;;;;;;;;4981944;28;20254;-90
2022/01/09 12:42:50;;;;;;;9.75;2.13;;;;;;;;;;4993002;28;20592;-90
2022/01/09 12:45:31;;;;;;;11.88;2.58;;;;;;;;;;4993931;28;20046;-90
2022/01/09 12:48:34;;;;;;;9.68;2.92;;;;;;;;;;4982314;28;20042;-92
2022/01/09 12:51:14;;;;;;;10.32;2.55;;;;;;;;;;4897072;29;20048;-91
2022/01/09 12:53:49;;;;;;;11.27;2.15;;;;;;;;;;4922930;28;20042;-89
2022/01/09 12:56:25;;;;;;;10.77;2.40;;;;;;;;;;4993028;28;20133;-88
2022/01/09 12:59:15;;;;;;;8.63;2.00;;;;;;;;;;4992538;28;20129;-90
2022/01/09 13:01:45;;;;;;;9.57;2.53;;;;;;;;;;4982349;28;20569;-92
2022/01/09 13:04:34;;;;;;;11.18;2.13;;;;;;;;;;4988736;28;20053;-90
2022/01/09 13:07:01;;;;;;;10.20;2.10;;;;;;;;;;5000793;28;20053;-91
2022/01/09 13:09:32;;;;;;;8.00;2.25;;;;;;;;;;4975959;28;20150;-91
2022/01/09 13:12:01;;;;;;;9.45;2.10;;;;;;;;;;4961464;28;20054;-90
2022/01/09 13:14:28;;;;;;;10.43;2.80;;;;;;;;;;4969671;28;20139;-89
2022/01/09 13:16:57;;;;;;;8.65;2.10;;;;;;;;;;4997245;28;20044;-91
2022/01/09 13:19:23;;;;;;;8.18;1.88;;;;;;;;;;4999038;28;20445;-90
2022/01/09 13:21:53;;;;;;;10.18;1.90;;;;;;;;;;4995254;28;20068;-92
2022/01/09 13:24:20;;;;;;;8.73;2.15;;;;;;;;;;5029145;28;20536;-91
2022/01/09 13:26:49;;;;;;;8.32;2.08;;;;;;;;;;4995988;28;20044;-87
2022/01/09 13:29:31;;;;;;;7.88;1.83;;;;;;;;;;5012735;28;20045;-93
2022/01/09 13:32:01;;;;;;;6.90;1.50;;;;;;;;;;5015072;28;20038;-92
2022/01/09 13:34:36;;;;;;;12.23;2.22;;;;;;;;;;5012687;28;20045;-92
2022/01/09 13:37:07;;;;;;;9.20;2.05;;;;;;;;;;4996076;28;20513;-91
2022/01/09 13:39:34;;;;;;;9.27;1.65;;;;;;;;;;5027939;28;20525;-90
2022/01/09 13:42:03;;;;;;;8.05;1.77;;;;;;;;;;5013545;28;20041;-88
2022/01/09 13:44:39;;;;;;;10.98;2.03;;;;;;;;;;5015070;28;20041;-90
2022/01/09 13:47:06;;;;;;;10.40;1.80;;;;;;;;;;5034372;28;20075;-91
2022/01/09 13:49:33;;;;;;;5.15;1.48;;;;;;;;;;5055785;28;20050;-88
2022/01/09 13:52:00;;;;;;;10.55;1.70;;;;;;;;;;5076477;28;20040;-90
2022/01/09 13:54:28;;;;;;;5.68;1.48;;;;;;;;;;5050100;28;20568;-91
2022/01/09 13:57:08;;;;;;;6.50;1.20;;;;;;;;;;5039471;28;20477;-90
2022/01/09 13:59:43;;;;;;;9.20;1.27;;;;;;;;;;5039041;28;20407;-91
2022/01/09 14:02:10;;;;;;;10.18;1.83;;;;;;;;;;5050285;28;20036;-92
2022/01/09 14:04:36;;;;;;;6.88;1.67;;;;;;;;;;5064278;28;20048;-93
2022/01/09 14:07:04;;;;;;;4.05;1.40;;;;;;;;;;5044331;28;20381;-91
2022/01/09 14:09:38;;;;;;;3.70;1.10;;;;;;;;;;5049755;28;20036;-90
2022/01/09 14:12:08;;;;;;;5.70;1.77;;;;;;;;;;5052760;28;20082;-92
2022/01/09 14:14:36;;;;;;;3.95;1.20;;;;;;;;;;5076731;28;20036;-89
2022/01/09 14:17:22;;;;;;;9.68;2.03;;;;;;;;;;5060491;28;20036;-90
2022/01/09 14:19:48;;;;;;;6.00;1.27;;;;;;;;;;5073486;28;20098;-89
2022/01/09 14:22:14;;;;;;;8.35;1.23;;;;;;;;;;5059581;28;20052;-93
2022/01/09 14:25:01;;;;;;;9.13;1.38;;;;;;;;;;5061446;28;20055;-91
2022/01/09 14:27:28;;;;;;;6.82;1.40;;;;;;;;;;5056557;28;20041;-89
2022/01/09 14:29:54;;;;;;;8.25;1.77;;;;;;;;;;5056667;28;20044;-88
2022/01/09 14:32:22;;;;;;;5.47;1.60;;;;;;;;;;5036954;28;20036;-91
2022/01/09 14:34:49;;;;;;;5.30;1.02;;;;;;;;;;5054962;28;20048;-89
2022/01/09 14:37:16;;;;;;;4.90;1.10;;;;;;;;;;5039212;28;20032;-93
2022/01/09 14:39:42;;;;;;;4.88;1.17;;;;;;;;;;5046384;28;20079;-92
2022/01/09 14:42:10;;;;;;;5.45;1.17;;;;;;;;;;5074553;28;20048;-92
2022/01/09 14:44:40;;;;;;;3.63;1.17;;;;;;;;;;5078759;28;20036;-92
2022/01/09 14:47:08;;;;;;;5.30;1.23;;;;;;;;;;5057601;28;20056;-92
2022/01/09 14:49:34;;;;;;;5.53;1.40;;;;;;;;;;5059555;28;20036;-91
2022/01/09 14:52:02;;;;;;;5.45;1.35;;;;;;;;;;5042021;28;20182;-92
2022/01/09 14:54:28;;;;;;;4.25;1.15;;;;;;;;;;5042625;28;20051;-90
2022/01/09 14:56:54;;;;;;;4.18;1.30;;;;;;;;;;5042152;28;20078;-92
2022/01/09 14:59:24;;;;;;;6.78;1.02;;;;;;;;;;5041345;28;20038;-89
2022/01/09 15:01:50;;;;;;;5.22;1.10;;;;;;;;;;5058118;28;20082;-92
2022/01/09 15:04:17;;;;;;;6.32;1.40;;;;;;;;;;5041351;28;20047;-93
2022/01/09 15:06:43;;;;;;;10.65;1.80;;;;;;;;;;5042190;28;20044;-91
2022/01/09 15:09:10;;;;;;;7.88;1.60;;;;;;;;;;5057613;28;20139;-90
2022/01/09 15:11:36;;;;;;;6.53;1.40;;;;;;;;;;5073944;28;20053;-91
2022/01/09 15:14:03;;;;;;;4.38;1.23;;;;;;;;;;5041317;28;20036;-92
2022/01/09 15:16:30;;;;;;;8.23;1.60;;;;;;;;;;5041233;28;20040;-92
2022/01/09 15:18:56;;;;;;;4.18;1.25;;;;;;;;;;5060764;28;20044;-92
2022/01/09 15:21:22;;;;;;;5.03;1.08;;;;;;;;;;5058008;28;20062;-90
2022/01/09 15:23:48;;;;;;;5.97;1.13;;;;;;;;;;5059825;28;20384;-90
2022/01/09 15:26:15;;;;;;;8.60;2.00;;;;;;;;;;5044073;28;20048;-93
2022/01/09 15:28:42;;;;;;;8.43;1.98;;;;;;;;;;5044980;28;20101;-92
2022/01/09 15:31:09;;;;;;;6.47;1.48;;;;;;;;;;5042548;28;20102;-92
2022/01/09 15:33:36;;;;;;;6.78;1.48;;;;;;;;;;5042584;28;20579;-91
2022/01/09 15:36:03;;;;;;;6.15;1.80;;;;;;;;;;5042112;28;20526;-91
2022/01/09 15:38:29;;;;;;;5.65;1.45;;;;;;;;;;5041070;28;20037;-90
2022/01/09 15:40:56;;;;;;;7.22;1.50;;;;;;;;;;5041376;28;20040;-90
2022/01/09 15:43:23;;;;;;;8.98;1.75;;;;;;;;;;5041635;28;20041;-92
2022/01/09 15:45:52;;;;;;;7.13;1.55;;;;;;;;;;5041095;28;20056;-91
2022/01/09 15:48:21;;;;;;;9.65;1.98;;;;;;;;;;5041361;28;20048;-91
2022/01/09 15:50:47;;;;;;;7.22;2.17;;;;;;;;;;5041274;28;20040;-91
2022/01/09 15:53:13;;;;;;;8.05;1.73;;;;;;;;;;5055184;28;20110;-91
2022/01/09 15:55:40;;;;;;;9.10;1.70;;;;;;;;;;5060793;28;20442;-91
2022/01/09 15:58:06;;;;;;;9.00;2.08;;;;;;;;;;5077670;28;20400;-91
2022/01/09 16:00:33;;;;;;;12.75;2.55;;;;;;;;;;5077896;28;20426;-91
2022/01/09 16:02:59;;;;;;;10.75;2.10;;;;;;;;;;5077681;28;20036;-91
2022/01/09 16:05:26;;;;;;;10.73;2.28;;;;;;;;;;5060694;28;20074;-91
2022/01/09 16:07:52;;;;;;;9.43;2.33;;;;;;;;;;5078812;28;20047;-93
2022/01/09 16:10:22;;;;;;;11.85;2.28;;;;;;;;;;5062113;28;20043;-92
2022/01/09 16:12:50;;;;;;;6.60;1.80;;;;;;;;;;5081529;28;20051;-93
2022/01/09 16:15:16;;;;;;;10.00;2.28;;;;;;;;;;5083873;28;20122;-92
2022/01/09 16:17:43;;;;;;;8.80;2.10;;;;;;;;;;5063815;28;20036;-92
2022/01/09 16:20:09;;;;;;;10.38;2.42;;;;;;;;;;5079525;28;20044;-92
2022/01/09 16:22:35;;;;;;;12.00;2.67;;;;;;;;;;5078985;28;20154;-91
2022/01/09 16:25:02;;;;;;;9.52;2.60;;;;;;;;;;5061133;28;20066;-91
2022/01/09 16:27:28;;;;;;;15.00;2.88;;;;;;;;;;5067352;28;20119;-92
2022/01/09 16:30:01;;;;;;;12.65;2.53;;;;;;;;;;5040618;28;20043;-92
2022/01/09 16:32:27;;;;;;;12.65;2.70;;;;;;;;;;5040584;28;20051;-92
2022/01/09 16:34:53;;;;;;;9.93;2.60;;;;;;;;;;5040883;28;20094;-93
2022/01/09 16:37:20;;;;;;;11.23;3.10;;;;;;;;;;5040332;28;20404;-91
2022/01/09 16:39:47;;;;;;;14.18;2.75;;;;;;;;;;5040813;28;20098;-93
2022/01/09 16:42:13;;;;;;;9.70;2.22;;;;;;;;;;5039633;28;20083;-91
2022/01/09 16:44:39;;;;;;;12.55;2.80;;;;;;;;;;5057040;28;20499;-92
2022/01/09 16:47:06;;;;;;;13.88;3.30;;;;;;;;;;5040088;28;20094;-91
2022/01/09 16:49:32;;;;;;;11.88;2.83;;;;;;;;;;5040158;28;20032;-92
2022/01/09 16:51:58;;;;;;;8.13;2.45;;;;;;;;;;5040173;28;20420;-91
2022/01/09 16:54:25;;;;;;;11.55;2.88;;;;;;;;;;5040235;28;20120;-91
2022/01/09 16:56:51;;;;;;;9.25;2.50;;;;;;;;;;5039795;28;20043;-90
2022/01/09 16:59:19;;;;;;;8.85;2.72;;;;;;;;;;5066718;28;20075;-92
2022/01/09 17:01:45;;;;;;;9.57;3.00;;;;;;;;;;5058844;28;20471;-91
2022/01/09 17:04:11;;;;;;;9.35;2.47;;;;;;;;;;5048871;28;20451;-91
2022/01/09 17:06:38;;;;;;;12.23;3.25;;;;;;;;;;5057986;28;20043;-89
2022/01/09 17:09:06;;;;;;;10.40;2.90;;;;;;;;;;5063949;28;20036;-90
2022/01/09 17:11:33;;;;;;;10.13;3.10;;;;;;;;;;5046483;28;20040;-88
2022/01/09 17:13:59;;;;;;;10.50;2.42;;;;;;;;;;5047445;28;20500;-91
2022/01/09 17:16:26;;;;;;;12.38;2.60;;;;;;;;;;5042855;28;20036;-92
2022/01/09 17:18:52;;;;;;;10.73;2.80;;;;;;;;;;5046449;28;20082;-91
2022/01/09 17:21:18;;;;;;;12.02;2.90;;;;;;;;;;5050360;28;20056;-90
2022/01/09 17:23:44;;;;;;;9.50;2.83;;;;;;;;;;5050653;28;20032;-90
2022/01/09 17:26:11;;;;;;;13.80;3.17;;;;;;;;;;5051268;28;20131;-88
2022/01/09 17:28:37;;;;;;;8.27;2.88;;;;;;;;;;5068120;28;20097;-88
2022/01/09 17:31:07;;;;;;;14.57;2.90;;;;;;;;;;5063029;28;20036;-90
2022/01/09 17:33:41;;;;;;;12.15;3.53;;;;;;;;;;5052264;28;20045;-90
2022/01/09 17:36:07;;;;;;;13.23;3.50;;;;;;;;;;5046113;28;20072;-88
2022/01/09 17:38:34;;;;;;;16.98;3.65;;;;;;;;;;5070806;28;20532;-87
2022/01/09 17:41:00;;;;;;;16.45;3.70;;;;;;;;;;5068735;28;20127;-87
2022/01/09 17:43:26;;;;;;;13.70;3.30;;;;;;;;;;5051338;28;20044;-87
2022/01/09 17:45:52;;;;;;;17.60;3.67;;;;;;;;;;5043719;28;20056;-88
2022/01/09 17:48:19;;;;;;;11.90;3.47;;;;;;;;;;5072012;28;20047;-87
2022/01/09 17:50:45;;;;;;;17.35;3.58;;;;;;;;;;5063359;28;20045;-88
2022/01/09 17:53:11;;;;;;;12.70;3.80;;;;;;;;;;5062669;28;20388;-87
2022/01/09 17:55:40;;;;;;;12.75;3.20;;;;;;;;;;5051515;28;20036;-88
2022/01/09 17:58:06;;;;;;;17.23;4.25;;;;;;;;;;5043559;28;20432;-88
2022/01/09 18:00:32;;;;;;;14.25;3.33;;;;;;;;;;5035315;28;20054;-88
2022/01/09 18:02:58;;;;;;;12.73;3.28;;;;;;;;;;5041280;28;20106;-88
2022/01/09 18:05:25;;;;;;;13.43;3.33;;;;;;;;;;5042247;28;20116;-88